Nagoya, Japan
Current Conditions -  °F | °C
As of 7:00 PM on Saturday 20 Dec 2014 (Local Time) from RJGG Reporting Station
Broken Clouds Broken Clouds  
Wind Chill: 45°   Ceiling: 9000
Heat Index: 48°   Visibility: 6mi
Dew Point: 45°   Wind: 7mph
Humidity: 87%   Direction: 310°NW
Pressure: 29.77"   Gusts: NA
Location:  35.15°N, 136.91°E
Report Text: RJGG 201000Z 31006KT 9999 FEW015 SCT030 BKN090 09/07 Q1008 BECMG 31016KT
Loading
Personal Weather Stations






























Interactive Weather Map New forecast layout! Learn more

10-Day Weather Forecast

Advertisements
Track Severe Weather on mobile